CheckWX is a tool to help pilots better visualize weather data.  It is not intended as a substitute for an official pre-flight weather briefing.

14:48:09 UTC

CYYT TAF
St. John's International Airport
St. John's, Canada
TAF CYYT 291138Z 2912/3012 02025G35KT P6SM -SN OVC025 TEMPO 2912/2920 21/2SM -FZRA -PL BR BKN008 OVC020 FM292000 35020G30KT P6SM -SN OVC015 TEMPO 2920/3006 21/2SM -SN -FZDZ BR PROB30 2920/3006 P6SM -FZRA -PL FM300600 25015G25KT 2SM -SN -FZDZ BR OVC012 RMK NXT FCST BY 291800Z

Mar-29@
12:00 UTC

Mar-29 @ 12:00 UTC

Mar-29@
20:00 UTC

Mar-29 @ 20:00 UTC

TAF CYYT 291138Z 2912/3012 02025G35KT P6SM -SN OVC025
Wind
  • 020° at 25 KTS
  • {Gusting to 35 KTS
Conditions
Light Snow
Cloud Levels
  • Overcast at 2,500' AGL

Mar-29@
12:00 UTC

Mar-29 @ 12:00 UTC

Mar-29@
20:00 UTC

Mar-29 @ 20:00 UTC

TEMPO 2912/2920 21/2SM -FZRA -PL BR BKN008 OVC020

Temporary

Temporary Changes expected for less than half the time period

Conditions
Light Freezing Rain, Light , Mist
Cloud Levels
  • Broken at 800' AGL
  • Overcast at 2,000' AGL

Mar-29@
20:00 UTC

Mar-29 @ 20:00 UTC

Mar-30@
06:00 UTC

Mar-30 @ 06:00 UTC

FM292000 35020G30KT P6SM -SN OVC015

From

From Standard forecast or significant change

Wind
  • 350° at 20 KTS
  • {Gusting to 30 KTS
Conditions
Light Snow
Cloud Levels
  • Overcast at 1,500' AGL

Mar-29@
20:00 UTC

Mar-29 @ 20:00 UTC

Mar-30@
06:00 UTC

Mar-30 @ 06:00 UTC

TEMPO 2920/3006 21/2SM -SN -FZDZ BR

Temporary

Temporary Changes expected for less than half the time period

Conditions
Light Snow, Light Freezing Drizzle, Mist
Cloud Levels

Mar-29@
20:00 UTC

Mar-29 @ 20:00 UTC

Mar-30@
06:00 UTC

Mar-30 @ 06:00 UTC

PROB30 2920/3006 P6SM -FZRA -PL

Probable - 30% Likelihood

Probable - 30% Likelihood during this time.

Conditions
Light Freezing Rain, Light
Cloud Levels

Mar-30@
06:00 UTC

Mar-30 @ 06:00 UTC

Mar-30@
12:00 UTC

Mar-30 @ 12:00 UTC

FM300600 25015G25KT 2SM -SN -FZDZ BR OVC012 RMK NXT FCST BY 291800Z

From

From Standard forecast or significant change

Wind
  • 250° at 15 KTS
  • {Gusting to 25 KTS
Conditions
Light Snow, Light Freezing Drizzle, Mist
Cloud Levels
  • Overcast at 1,200' AGL